createdAt,value
2018-06-05T00:00:43.257Z,7.60
2018-06-05T00:03:11.225Z,8.03
2018-06-05T00:05:39.216Z,6.70
2018-06-05T00:08:07.194Z,7.90
2018-06-05T00:10:35.348Z,8.83
2018-06-05T00:13:03.368Z,7.20
2018-06-05T00:15:31.344Z,7.87
2018-06-05T00:17:59.378Z,8.37
2018-06-05T00:20:27.425Z,7.90
2018-06-05T00:22:55.540Z,7.87
2018-06-05T00:25:23.585Z,8.37
2018-06-05T00:27:51.566Z,7.67
2018-06-05T00:30:19.586Z,8.17
2018-06-05T00:32:47.523Z,7.83
2018-06-05T00:35:15.602Z,7.60
2018-06-05T00:37:43.722Z,9.07
2018-06-05T00:40:11.724Z,8.40
2018-06-05T00:42:39.791Z,7.83
2018-06-05T00:45:07.721Z,8.97
2018-06-05T00:47:35.759Z,9.30
2018-06-05T00:50:03.771Z,8.73
2018-06-05T00:52:31.758Z,8.47
2018-06-05T00:54:59.804Z,9.13
2018-06-05T00:57:27.829Z,9.47
2018-06-05T00:59:55.792Z,9.07
2018-06-05T01:02:23.816Z,8.73
2018-06-05T01:04:51.796Z,9.57
2018-06-05T01:07:19.955Z,8.87
2018-06-05T01:09:47.904Z,10.00
2018-06-05T01:12:15.880Z,9.37
2018-06-05T01:14:43.979Z,10.50
2018-06-05T01:17:12.004Z,9.50
2018-06-05T01:19:40.089Z,9.13
2018-06-05T01:22:08.127Z,9.23
2018-06-05T01:24:36.079Z,9.13
2018-06-05T01:27:04.345Z,8.37
2018-06-05T01:29:32.407Z,9.40
2018-06-05T01:32:00.439Z,8.80
2018-06-05T01:34:28.508Z,8.90
2018-06-05T01:36:56.560Z,10.20
2018-06-05T01:39:24.587Z,8.17
2018-06-05T01:41:52.601Z,9.90
2018-06-05T01:44:20.615Z,8.53
2018-06-05T01:46:48.630Z,9.00
2018-06-05T01:49:16.620Z,11.87
2018-06-05T01:51:44.600Z,12.17
2018-06-05T01:54:12.615Z,10.83
2018-06-05T01:56:40.566Z,11.07
2018-06-05T01:59:08.555Z,7.90
2018-06-05T02:01:36.542Z,9.10
2018-06-05T02:04:04.616Z,9.33
2018-06-05T02:06:32.657Z,9.60
2018-06-05T02:09:00.815Z,10.53
2018-06-05T02:11:28.884Z,9.73
2018-06-05T02:13:56.891Z,10.37
2018-06-05T02:16:24.891Z,9.40
2018-06-05T02:18:52.884Z,9.80
2018-06-05T02:21:20.916Z,9.37
2018-06-05T02:23:48.996Z,9.90
2018-06-05T02:26:17.055Z,9.50
2018-06-05T02:28:45.081Z,10.03
2018-06-05T02:31:13.139Z,9.23
2018-06-05T02:33:41.120Z,9.67
2018-06-05T02:36:09.135Z,9.83
2018-06-05T02:38:37.211Z,9.97
2018-06-05T02:41:05.322Z,10.10
2018-06-05T02:43:33.327Z,10.07
2018-06-05T02:46:01.310Z,10.47
2018-06-05T02:48:29.327Z,10.17
2018-06-05T02:50:57.307Z,9.73
2018-06-05T02:53:25.442Z,9.70
2018-06-05T02:55:53.492Z,11.13
2018-06-05T02:58:21.569Z,9.87
2018-06-05T03:00:49.562Z,10.73
2018-06-05T03:03:17.534Z,11.03
2018-06-05T03:05:45.535Z,9.70
2018-06-05T03:08:13.524Z,13.77
2018-06-05T03:10:41.620Z,11.47
2018-06-05T03:13:09.663Z,11.17
2018-06-05T03:15:37.701Z,9.27
2018-06-05T03:18:05.835Z,10.57
2018-06-05T03:20:33.866Z,10.63
2018-06-05T03:23:01.912Z,11.00
2018-06-05T03:25:29.910Z,12.00
2018-06-05T03:27:57.860Z,10.83
2018-06-05T03:30:25.806Z,11.60
2018-06-05T03:32:53.795Z,11.43
2018-06-05T03:35:21.809Z,12.50
2018-06-05T03:37:49.889Z,11.13
2018-06-05T03:40:17.907Z,13.37
2018-06-05T03:42:45.956Z,11.87
2018-06-05T03:45:14.687Z,11.07
2018-06-05T03:47:42.709Z,9.97
2018-06-05T03:50:10.682Z,8.90
2018-06-05T03:52:38.725Z,11.23
2018-06-05T03:55:06.767Z,11.80
2018-06-05T03:57:34.890Z,9.73
2018-06-05T04:00:03.095Z,9.17
2018-06-05T04:02:31.073Z,9.00
2018-06-05T04:04:59.138Z,9.40
2018-06-05T04:07:27.151Z,8.60
2018-06-05T04:09:55.208Z,9.73
2018-06-05T04:12:23.164Z,9.33
2018-06-05T04:14:51.232Z,10.20
2018-06-05T04:17:19.491Z,14.47
2018-06-05T04:19:47.808Z,32.87
2018-06-05T04:22:15.993Z,44.63
2018-06-05T04:24:43.978Z,37.80
2018-06-05T04:27:12.160Z,28.57
2018-06-05T04:29:40.213Z,31.13
2018-06-05T04:32:08.403Z,31.87
2018-06-05T04:34:36.485Z,31.63
2018-06-05T04:37:04.449Z,24.33
2018-06-05T04:39:32.535Z,22.43
2018-06-05T04:42:00.550Z,19.90
2018-06-05T04:44:35.208Z,14.53
2018-06-05T04:47:03.293Z,17.30
2018-06-05T04:49:31.400Z,12.40
2018-06-05T04:51:59.459Z,15.53
2018-06-05T04:54:27.472Z,14.27
2018-06-05T04:56:55.497Z,13.33
2018-06-05T04:59:23.471Z,15.00
2018-06-05T05:01:51.445Z,14.80
2018-06-05T05:04:19.515Z,15.53
2018-06-05T05:06:47.550Z,16.27
2018-06-05T05:09:15.993Z,13.50
2018-06-05T05:11:44.018Z,14.07
2018-06-05T05:14:12.060Z,16.63
2018-06-05T05:16:40.245Z,18.10
2018-06-05T05:19:08.354Z,17.63
2018-06-05T05:21:36.343Z,19.43
2018-06-05T05:24:04.450Z,13.77
2018-06-05T05:26:32.445Z,15.23
2018-06-05T05:29:00.509Z,11.97
2018-06-05T05:31:28.568Z,19.63
2018-06-05T05:33:56.624Z,13.97
2018-06-05T05:36:24.808Z,17.53
2018-06-05T05:38:52.919Z,13.03
2018-06-05T05:41:20.961Z,14.07
2018-06-05T05:43:49.002Z,11.40
2018-06-05T05:46:17.022Z,10.87
2018-06-05T05:48:45.008Z,12.20
2018-06-05T05:51:13.077Z,13.77
2018-06-05T05:53:41.223Z,11.80
2018-06-05T05:56:09.235Z,11.53
2018-06-05T05:58:37.280Z,11.20
2018-06-05T06:01:05.445Z,11.43
2018-06-05T06:03:33.487Z,11.00
2018-06-05T06:06:01.560Z,10.97
2018-06-05T06:08:29.785Z,12.00
2018-06-05T06:10:57.917Z,11.50
2018-06-05T06:13:25.977Z,11.07
2018-06-05T06:15:54.159Z,11.97
2018-06-05T06:18:22.236Z,10.80
2018-06-05T06:20:50.355Z,10.77
2018-06-05T06:23:18.562Z,13.13
2018-06-05T06:25:46.591Z,10.93
2018-06-05T06:28:14.736Z,10.03
2018-06-05T06:30:42.841Z,10.00
2018-06-05T06:33:10.871Z,10.80
2018-06-05T06:35:38.996Z,11.00
2018-06-05T06:38:06.999Z,11.77
2018-06-05T06:40:35.069Z,11.90
2018-06-05T06:43:03.497Z,11.33
2018-06-05T06:45:31.613Z,10.17
2018-06-05T06:47:59.625Z,9.23
2018-06-05T06:50:27.809Z,9.37
2018-06-05T06:52:55.831Z,9.63
2018-06-05T06:55:23.831Z,10.40
2018-06-05T06:57:52.777Z,8.23
2018-06-05T07:00:21.227Z,6.10
2018-06-05T07:02:49.688Z,9.70
2018-06-05T07:05:18.032Z,9.27
2018-06-05T07:07:46.419Z,8.37
2018-06-05T07:10:14.794Z,8.93
2018-06-05T07:12:43.104Z,8.73
2018-06-05T07:15:11.632Z,9.17
2018-06-05T07:17:40.076Z,10.60
2018-06-05T07:20:08.400Z,8.80
2018-06-05T07:22:36.728Z,8.93
2018-06-05T07:25:05.082Z,8.40
2018-06-05T07:27:33.549Z,11.80
2018-06-05T07:30:02.084Z,8.97
2018-06-05T07:32:30.472Z,8.50
2018-06-05T07:34:58.884Z,8.10
2018-06-05T07:37:27.298Z,8.30
2018-06-05T07:39:56.314Z,10.17
2018-06-05T07:42:25.232Z,8.73
2018-06-05T07:44:54.127Z,9.27
2018-06-05T07:47:22.554Z,7.83
2018-06-05T07:49:50.985Z,10.47
2018-06-05T07:52:19.398Z,8.87
2018-06-05T07:54:47.838Z,13.53
2018-06-05T07:57:16.178Z,7.87
2018-06-05T07:59:44.545Z,8.90
2018-06-05T08:02:12.970Z,8.00
2018-06-05T08:04:42.881Z,9.50
2018-06-05T08:07:11.485Z,8.83
2018-06-05T08:09:39.936Z,7.93
2018-06-05T08:12:09.059Z,7.80
2018-06-05T08:14:37.591Z,8.03
2018-06-05T08:17:05.981Z,7.72
2018-06-05T08:19:34.319Z,8.40
2018-06-05T08:22:02.796Z,9.07
2018-06-05T08:24:31.224Z,9.43
2018-06-05T08:26:59.717Z,10.40
2018-06-05T08:29:28.021Z,9.27
2018-06-05T08:31:56.467Z,9.28
2018-06-05T08:34:25.019Z,9.75
2018-06-05T08:36:53.514Z,9.28
2018-06-05T08:39:21.816Z,10.48
2018-06-05T08:41:50.156Z,9.28
2018-06-05T08:44:18.507Z,9.68
2018-06-05T08:46:47.487Z,15.75
2018-06-05T08:49:16.899Z,9.18
2018-06-05T08:51:46.228Z,9.68
2018-06-05T08:54:15.315Z,9.75
2018-06-05T08:56:43.820Z,8.95
2018-06-05T08:59:12.178Z,9.58
2018-06-05T09:01:40.605Z,9.60
2018-06-05T09:04:09.023Z,8.87
2018-06-05T09:06:37.460Z,10.05
2018-06-05T09:09:08.027Z,9.75
2018-06-05T09:11:36.455Z,13.22
2018-06-05T09:14:05.135Z,10.05
2018-06-05T09:16:34.003Z,9.73
2018-06-05T09:19:03.297Z,8.70
2018-06-05T09:21:31.901Z,11.22
2018-06-05T09:24:00.259Z,10.05
2018-06-05T09:26:28.718Z,8.78
2018-06-05T09:28:57.329Z,10.35
2018-06-05T09:31:25.760Z,11.12
2018-06-05T09:33:54.167Z,9.48
2018-06-05T09:36:22.575Z,9.48
2018-06-05T09:38:51.013Z,10.48
2018-06-05T09:41:19.517Z,10.15
2018-06-05T09:43:47.831Z,8.25
2018-06-05T09:46:16.212Z,9.85
2018-06-05T09:48:44.692Z,9.78
2018-06-05T09:51:13.004Z,9.78
2018-06-05T09:53:41.889Z,9.20
2018-06-05T09:56:10.287Z,9.68
2018-06-05T09:58:38.555Z,8.48
2018-06-05T10:01:06.769Z,8.53
2018-06-05T10:03:34.796Z,8.30
2018-06-05T10:06:02.900Z,8.18
2018-06-05T10:08:31.430Z,8.58
2018-06-05T10:10:59.497Z,7.95
2018-06-05T10:13:27.692Z,8.45
2018-06-05T10:15:55.751Z,9.43
2018-06-05T10:18:23.827Z,9.03
2018-06-05T10:20:51.901Z,9.33
2018-06-05T10:23:19.931Z,8.28
2018-06-05T10:25:48.070Z,10.32
2018-06-05T10:28:16.304Z,9.73
2018-06-05T10:30:44.725Z,9.23
2018-06-05T10:33:12.977Z,9.18
2018-06-05T10:35:41.534Z,8.75
2018-06-05T10:38:10.090Z,13.38
2018-06-05T10:40:38.226Z,16.27
2018-06-05T10:43:06.344Z,19.70
2018-06-05T10:45:34.590Z,17.53
2018-06-05T10:48:02.879Z,14.30
2018-06-05T10:50:31.104Z,11.93
2018-06-05T10:52:59.179Z,12.90
2018-06-05T10:55:27.373Z,11.53
2018-06-05T10:57:55.766Z,15.37
2018-06-05T11:00:24.268Z,11.23
2018-06-05T11:02:52.564Z,12.87
2018-06-05T11:05:21.197Z,10.93
2018-06-05T11:07:49.618Z,10.73
2018-06-05T11:10:17.781Z,13.00
2018-06-05T11:12:46.255Z,11.13
2018-06-05T11:15:14.402Z,10.20
2018-06-05T11:17:42.492Z,6.53
2018-06-05T11:20:10.893Z,9.60
2018-06-05T11:22:39.742Z,8.87
2018-06-05T11:25:08.119Z,10.43
2018-06-05T11:27:36.449Z,9.47
2018-06-05T11:30:05.351Z,9.57
2018-06-05T11:32:33.867Z,8.70
2018-06-05T11:35:02.205Z,7.80
2018-06-05T11:37:30.589Z,8.47
2018-06-05T11:39:59.029Z,8.00
2018-06-05T11:42:27.449Z,7.90
2018-06-05T11:44:55.808Z,12.27
2018-06-05T11:47:24.108Z,10.00
2018-06-05T11:49:52.975Z,9.10
2018-06-05T11:52:21.301Z,8.97
2018-06-05T11:54:50.045Z,8.53
2018-06-05T11:57:18.473Z,8.43
2018-06-05T11:59:46.990Z,7.10
2018-06-05T12:02:15.394Z,7.20
2018-06-05T12:04:44.017Z,9.07
2018-06-05T12:07:12.418Z,6.93
2018-06-05T12:09:40.757Z,8.93
2018-06-05T12:12:09.152Z,9.07
2018-06-05T12:14:37.591Z,8.23
2018-06-05T12:17:05.974Z,8.97
2018-06-05T12:19:34.313Z,9.30
2018-06-05T12:22:02.772Z,8.58
2018-06-05T12:24:31.325Z,10.48
2018-06-05T12:26:59.807Z,9.35
2018-06-05T12:29:28.209Z,7.10
2018-06-05T12:31:56.678Z,7.45
2018-06-05T12:34:24.987Z,6.92
2018-06-05T12:36:53.451Z,6.95
2018-06-05T12:39:21.918Z,7.95
2018-06-05T12:41:50.543Z,6.72
2018-06-05T12:44:18.857Z,8.15
2018-06-05T12:46:47.197Z,7.90
2018-06-05T12:49:15.519Z,7.45
2018-06-05T12:51:43.970Z,7.12
2018-06-05T12:54:12.504Z,7.40
2018-06-05T12:56:40.850Z,8.25
2018-06-05T12:59:09.116Z,7.40
2018-06-05T13:01:37.435Z,7.97
2018-06-05T13:04:06.057Z,9.00
2018-06-05T13:06:34.548Z,8.97
2018-06-05T13:09:03.881Z,9.33
2018-06-05T13:11:32.404Z,8.30
2018-06-05T13:14:00.770Z,9.57
2018-06-05T13:16:29.129Z,12.03
2018-06-05T13:18:57.535Z,9.20
2018-06-05T13:21:26.156Z,11.38
2018-06-05T13:23:54.483Z,9.88
2018-06-05T13:26:22.865Z,9.98
2018-06-05T13:28:51.216Z,9.60
2018-06-05T13:31:19.532Z,12.10
2018-06-05T13:33:47.923Z,13.85
2018-06-05T13:36:16.260Z,11.60
2018-06-05T13:38:44.838Z,14.75
2018-06-05T13:41:13.283Z,10.40
2018-06-05T13:43:41.682Z,10.40
2018-06-05T13:46:10.960Z,10.27
2018-06-05T13:48:39.242Z,14.60
2018-06-05T13:51:07.571Z,10.43
2018-06-05T13:53:35.899Z,12.70
2018-06-05T13:56:04.165Z,10.55
2018-06-05T13:58:32.494Z,10.30
2018-06-05T14:01:00.843Z,9.68
2018-06-05T14:03:29.168Z,9.48
2018-06-05T14:05:57.397Z,11.18
2018-06-05T14:08:25.766Z,8.53
2018-06-05T14:10:54.095Z,9.53
2018-06-05T14:13:22.393Z,13.17
2018-06-05T14:15:50.767Z,8.95
2018-06-05T14:18:19.069Z,8.95
2018-06-05T14:20:47.119Z,10.23
2018-06-05T14:23:15.267Z,10.37
2018-06-05T14:25:43.268Z,9.50
2018-06-05T14:28:11.390Z,11.33
2018-06-05T14:30:39.663Z,8.50
2018-06-05T14:33:07.852Z,11.07
2018-06-05T14:35:35.842Z,8.87
2018-06-05T14:38:03.830Z,10.67
2018-06-05T14:40:31.890Z,8.13
2018-06-05T14:43:00.099Z,13.13
2018-06-05T14:45:28.215Z,12.43
2018-06-05T14:47:56.228Z,9.48
2018-06-05T14:50:24.369Z,16.40
2018-06-05T14:52:52.504Z,8.68
2018-06-05T14:55:20.579Z,8.73
2018-06-05T14:57:48.616Z,9.00
2018-06-05T15:00:16.632Z,9.40
2018-06-05T15:02:44.987Z,12.63
2018-06-05T15:05:13.324Z,8.38
2018-06-05T15:07:41.352Z,7.87
2018-06-05T15:10:09.364Z,7.97
2018-06-05T15:12:37.383Z,9.68
2018-06-05T15:15:05.784Z,8.78
2018-06-05T15:17:33.874Z,7.25
2018-06-05T15:20:01.888Z,7.92
2018-06-05T15:22:29.975Z,7.75
2018-06-05T15:24:58.877Z,7.53
2018-06-05T15:27:27.635Z,7.22
2018-06-05T15:29:55.807Z,6.12
2018-06-05T15:32:23.857Z,6.00
2018-06-05T15:34:51.971Z,5.97
2018-06-05T15:37:19.932Z,6.28
2018-06-05T15:39:47.967Z,6.72
2018-06-05T15:42:15.975Z,6.20
2018-06-05T15:44:44.027Z,6.70
2018-06-05T15:47:12.039Z,6.20
2018-06-05T15:49:40.053Z,5.37
2018-06-05T15:52:08.081Z,5.83
2018-06-05T15:54:36.091Z,4.95
2018-06-05T15:57:04.166Z,5.30
2018-06-05T15:59:32.229Z,5.10
2018-06-05T16:02:00.323Z,5.20
2018-06-05T16:04:28.372Z,5.53
2018-06-05T16:06:56.365Z,6.30
2018-06-05T16:09:24.507Z,6.57
2018-06-05T16:11:52.526Z,5.40
2018-06-05T16:14:20.580Z,5.10
2018-06-05T16:16:48.672Z,6.53
2018-06-05T16:19:16.730Z,6.80
2018-06-05T16:21:44.903Z,6.40
2018-06-05T16:24:12.881Z,6.00
2018-06-05T16:26:40.917Z,5.87
2018-06-05T16:29:09.031Z,7.35
2018-06-05T16:31:37.066Z,5.40
2018-06-05T16:34:05.195Z,6.20
2018-06-05T16:36:33.302Z,5.67
2018-06-05T16:39:01.348Z,5.60
2018-06-05T16:41:29.621Z,7.57
2018-06-05T16:43:57.796Z,6.03
2018-06-05T16:46:25.976Z,5.90
2018-06-05T16:48:54.024Z,5.60
2018-06-05T16:51:22.190Z,5.93
2018-06-05T16:53:50.352Z,5.53
2018-06-05T16:56:18.532Z,5.90
2018-06-05T16:58:46.601Z,8.27
2018-06-05T17:01:14.817Z,6.87
2018-06-05T17:03:43.060Z,5.80
2018-06-05T17:06:11.164Z,5.67
2018-06-05T17:08:39.317Z,5.23
2018-06-05T17:11:07.404Z,5.90
2018-06-05T17:13:35.569Z,6.10
2018-06-05T17:16:03.809Z,5.50
2018-06-05T17:18:31.990Z,5.90
2018-06-05T17:21:00.491Z,6.37
2018-06-05T17:23:28.622Z,7.10
2018-06-05T17:25:56.810Z,8.47
2018-06-05T17:28:24.895Z,6.13
2018-06-05T17:30:53.021Z,5.63
2018-06-05T17:33:21.145Z,6.93
2018-06-05T17:35:49.325Z,5.83
2018-06-05T17:38:17.489Z,7.37
2018-06-05T17:40:45.559Z,5.50
2018-06-05T17:43:13.772Z,7.23
2018-06-05T17:45:43.596Z,5.80
2018-06-05T17:48:11.707Z,6.70
2018-06-05T17:50:40.064Z,6.07
2018-06-05T17:53:08.204Z,6.10
2018-06-05T17:55:36.367Z,8.40
2018-06-05T17:58:04.586Z,5.93
2018-06-05T18:00:32.862Z,7.23
2018-06-05T18:03:00.905Z,6.43
2018-06-05T18:05:29.191Z,6.57
2018-06-05T18:07:57.342Z,6.83
2018-06-05T18:10:25.768Z,6.03
2018-06-05T18:12:53.949Z,6.13
2018-06-05T18:15:22.119Z,7.63
2018-06-05T18:17:50.284Z,6.30
2018-06-05T18:20:18.605Z,6.67
2018-06-05T18:22:46.811Z,6.73
2018-06-05T18:25:15.317Z,7.97
2018-06-05T18:27:43.631Z,6.00
2018-06-05T18:30:11.746Z,5.63
2018-06-05T18:32:39.870Z,9.57
2018-06-05T18:35:07.986Z,6.53
2018-06-05T18:37:36.295Z,6.10
2018-06-05T18:40:04.529Z,6.67
2018-06-05T18:42:32.670Z,7.03
2018-06-05T18:45:00.742Z,6.97
2018-06-05T18:47:29.109Z,6.37
2018-06-05T18:49:57.384Z,8.00
2018-06-05T18:52:25.487Z,7.37
2018-06-05T18:54:53.618Z,6.17
2018-06-05T18:57:21.856Z,6.03
2018-06-05T18:59:50.140Z,9.70
2018-06-05T19:02:18.436Z,6.70
2018-06-05T19:04:46.636Z,6.43
2018-06-05T19:07:14.942Z,6.10
2018-06-05T19:09:43.275Z,6.17
2018-06-05T19:12:11.483Z,6.87
2018-06-05T19:14:39.697Z,9.80
2018-06-05T19:17:07.846Z,9.70
2018-06-05T19:19:36.155Z,6.60
2018-06-05T19:22:04.184Z,6.70
2018-06-05T19:24:32.504Z,7.60
2018-06-05T19:27:00.857Z,6.40
2018-06-05T19:29:28.960Z,6.93
2018-06-05T19:31:57.148Z,6.93
2018-06-05T19:34:25.405Z,7.00
2018-06-05T19:36:53.641Z,6.63
2018-06-05T19:39:21.768Z,7.10
2018-06-05T19:41:49.957Z,7.20
2018-06-05T19:44:18.124Z,7.30
2018-06-05T19:46:46.445Z,7.43
2018-06-05T19:49:14.721Z,9.60
2018-06-05T19:51:43.055Z,7.60
2018-06-05T19:54:11.396Z,7.23
2018-06-05T19:56:39.674Z,7.07
2018-06-05T19:59:08.025Z,7.23
2018-06-05T20:01:36.363Z,7.17
2018-06-05T20:04:04.658Z,7.87
2018-06-05T20:06:32.889Z,8.73
2018-06-05T20:09:01.198Z,7.83
2018-06-05T20:11:29.430Z,8.90
2018-06-05T20:13:57.715Z,7.40
2018-06-05T20:16:26.019Z,9.20
2018-06-05T20:18:54.309Z,9.00
2018-06-05T20:21:22.467Z,7.60
2018-06-05T20:23:50.830Z,7.50
2018-06-05T20:26:18.990Z,7.87
2018-06-05T20:28:47.161Z,8.00
2018-06-05T20:31:15.324Z,7.70
2018-06-05T20:33:43.446Z,7.70
2018-06-05T20:36:11.630Z,8.73
2018-06-05T20:38:39.723Z,8.80
2018-06-05T20:41:07.866Z,8.10
2018-06-05T20:43:35.974Z,7.73
2018-06-05T20:46:04.034Z,8.77
2018-06-05T20:48:32.141Z,8.57
2018-06-05T20:51:00.268Z,8.30
2018-06-05T20:53:28.449Z,9.47
2018-06-05T20:55:56.510Z,8.10
2018-06-05T20:58:24.650Z,8.73
2018-06-05T21:00:52.880Z,9.33
2018-06-05T21:03:21.085Z,7.93
2018-06-05T21:05:49.456Z,8.53
2018-06-05T21:08:17.574Z,8.67
2018-06-05T21:10:45.628Z,9.60
2018-06-05T21:13:13.690Z,8.90
2018-06-05T21:15:41.764Z,8.37
2018-06-05T21:18:09.791Z,7.87
2018-06-05T21:20:37.880Z,8.20
2018-06-05T21:23:06.176Z,8.13
2018-06-05T21:25:34.252Z,8.50
2018-06-05T21:28:02.282Z,8.33
2018-06-05T21:30:30.331Z,9.43
2018-06-05T21:32:58.359Z,9.40
2018-06-05T21:35:26.353Z,10.60
2018-06-05T21:37:54.396Z,9.37
2018-06-05T21:40:22.413Z,7.97
2018-06-05T21:42:50.421Z,8.00
2018-06-05T21:45:18.521Z,8.60
2018-06-05T21:47:46.588Z,9.07
2018-06-05T21:50:14.702Z,8.83
2018-06-05T21:52:42.703Z,10.43
2018-06-05T21:55:11.013Z,8.10
2018-06-05T21:57:39.063Z,9.20
2018-06-05T22:00:07.151Z,8.20
2018-06-05T22:02:35.219Z,9.17
2018-06-05T22:05:03.280Z,8.57
2018-06-05T22:07:31.318Z,8.90
2018-06-05T22:09:59.292Z,9.30
2018-06-05T22:12:27.319Z,9.10
2018-06-05T22:14:55.338Z,9.30
2018-06-05T22:17:23.292Z,9.90
2018-06-05T22:19:51.294Z,9.60
2018-06-05T22:22:19.257Z,9.00
2018-06-05T22:24:47.386Z,9.50
2018-06-05T22:27:15.365Z,10.33
2018-06-05T22:29:43.354Z,9.10
2018-06-05T22:32:11.432Z,10.90
2018-06-05T22:34:39.477Z,12.30
2018-06-05T22:37:07.483Z,10.37
2018-06-05T22:39:35.477Z,9.33
2018-06-05T22:42:03.478Z,9.90
2018-06-05T22:44:31.505Z,12.13
2018-06-05T22:46:59.530Z,9.93
2018-06-05T22:49:27.556Z,10.40
2018-06-05T22:51:55.585Z,9.27
2018-06-05T22:54:23.606Z,11.20
2018-06-05T22:56:51.618Z,10.03
2018-06-05T22:59:19.711Z,12.87
2018-06-05T23:01:47.687Z,9.90
2018-06-05T23:04:15.749Z,9.80
2018-06-05T23:06:43.785Z,10.07
2018-06-05T23:09:11.791Z,9.23
2018-06-05T23:11:39.736Z,9.37
2018-06-05T23:14:07.763Z,10.90
2018-06-05T23:16:35.786Z,10.80
2018-06-05T23:19:03.854Z,9.80
2018-06-05T23:21:31.920Z,10.63
2018-06-05T23:23:59.960Z,10.70
2018-06-05T23:26:27.997Z,11.23
2018-06-05T23:28:55.979Z,11.60
2018-06-05T23:31:23.941Z,10.50
2018-06-05T23:33:51.948Z,10.70
2018-06-05T23:36:19.935Z,10.63
2018-06-05T23:38:48.018Z,12.20
2018-06-05T23:41:16.166Z,11.33
2018-06-05T23:43:44.164Z,10.77
2018-06-05T23:46:12.218Z,10.50
2018-06-05T23:48:40.308Z,11.13
2018-06-05T23:51:08.277Z,11.60
2018-06-05T23:53:36.369Z,11.37
2018-06-05T23:56:04.490Z,11.87
2018-06-05T23:58:32.453Z,14.83
